Terminal Aerodrome Forecast
Issued by NWS Wilmington, OH

Current Version | Previous Version | Text Only | Print | Product List | Glossary Off
Versions: 1 2 3 4 5 6 7 8 9 10 11 12 13 14 15 16 17 18 19 20 21

929
FTUS41 KILN 270520
TAFCVG
TAF
KCVG 270520Z 2706/2812 22003KT P6SM VCTS SCT050CB
     FM270700 00000KT P6SM FEW100
     FM271400 28004KT P6SM SKC
     FM271700 30005KT P6SM SCT060
     FM280000 00000KT P6SM SKC=

USA.gov is the U.S. government's official web portal to all federal, state and local government web resources and services.